Wetterdaten: aktuell Donnerstag, 18.07.2019 01:40
Datum Zeit Temp. A. Feuchte A. Luftdruck Regen Wind Sonnenschein UV Solar Windchill Empfang
18.07.2019 01:40 14,6 °C 91 % 1011,3 hPa 0,0 l/m² 0,0 km/h 0 min 0,0 UV-I 0 W/m² 14,6 °C 100 %
18.07.2019 01:30 14,8 °C 90 % 1011,3 hPa 0,0 l/m² 0,0 km/h 0 min 0,0 UV-I 0 W/m² 14,8 °C 100 %
18.07.2019 01:20 14,9 °C 90 % 1011,3 hPa 0,0 l/m² 0,0 km/h 0 min 0,0 UV-I 0 W/m² 14,9 °C 100 %
18.07.2019 01:10 15,1 °C 90 % 1011,4 hPa 0,0 l/m² 0,0 km/h 0 min 0,0 UV-I 0 W/m² 15,1 °C 100 %
18.07.2019 01:00 15,2 °C 90 % 1011,4 hPa 0,0 l/m² 0,0 km/h 0 min 0,0 UV-I 0 W/m² 15,2 °C 100 %
18.07.2019 00:50 15,3 °C 90 % 1011,4 hPa 0,0 l/m² 0,0 km/h 0 min 0,0 UV-I 0 W/m² 15,3 °C 100 %
18.07.2019 00:40 15,4 °C 90 % 1011,4 hPa 0,0 l/m² 0,0 km/h 0 min 0,0 UV-I 0 W/m² 15,4 °C 100 %
18.07.2019 00:30 15,6 °C 90 % 1011,5 hPa 0,0 l/m² 0,0 km/h 0 min 0,0 UV-I 0 W/m² 15,6 °C 100 %
18.07.2019 00:20 15,7 °C 90 % 1011,5 hPa 0,0 l/m² 0,0 km/h 0 min 0,0 UV-I 0 W/m² 15,7 °C 99 %
18.07.2019 00:10 15,9 °C 89 % 1011,5 hPa 0,0 l/m² 0,0 km/h 0 min 0,0 UV-I 0 W/m² 15,9 °C 100 %
18.07.2019 00:00 16,1 °C 89 % 1011,4 hPa 0,0 l/m² 0,0 km/h 0 min 0,0 UV-I 0 W/m² 16,1 °C 100 %
17.07.2019 23:50 16,2 °C 88 % 1011,5 hPa 0,0 l/m² 0,0 km/h 0 min 0,0 UV-I 0 W/m² 16,2 °C 100 %
17.07.2019 23:40 16,4 °C 88 % 1011,4 hPa 0,0 l/m² 0,0 km/h 0 min 0,0 UV-I 0 W/m² 16,4 °C 100 %
17.07.2019 23:30 16,7 °C 87 % 1011,4 hPa 0,0 l/m² 0,0 km/h 0 min 0,0 UV-I 0 W/m² 16,7 °C 100 %
17.07.2019 23:20 16,9 °C 87 % 1011,3 hPa 0,0 l/m² 0,0 km/h 0 min 0,0 UV-I 0 W/m² 16,9 °C 100 %
17.07.2019 23:10 17,1 °C 87 % 1011,2 hPa 0,0 l/m² 0,0 km/h 0 min 0,0 UV-I 0 W/m² 17,1 °C 100 %
17.07.2019 23:00 17,3 °C 87 % 1011,2 hPa 0,0 l/m² 0,0 km/h 0 min 0,0 UV-I 0 W/m² 17,3 °C 100 %
17.07.2019 22:50 17,5 °C 86 % 1011,2 hPa 0,0 l/m² 0,0 km/h 0 min 0,0 UV-I 0 W/m² 17,5 °C 100 %
17.07.2019 22:40 17,7 °C 86 % 1011,0 hPa 0,0 l/m² 0,0 km/h 0 min 0,0 UV-I 0 W/m² 17,7 °C 100 %
17.07.2019 22:30 18,0 °C 85 % 1011,0 hPa 0,0 l/m² 0,0 km/h 0 min 0,0 UV-I 0 W/m² 18,0 °C 100 %
17.07.2019 22:20 18,3 °C 84 % 1010,9 hPa 0,0 l/m² 0,0 km/h 0 min 0,0 UV-I 0 W/m² 18,3 °C 100 %
17.07.2019 22:10 18,8 °C 82 % 1010,9 hPa 0,0 l/m² 0,0 km/h 0 min 0,0 UV-I 0 W/m² 18,8 °C 100 %
17.07.2019 22:00 19,2 °C 81 % 1010,9 hPa 0,0 l/m² 0,0 km/h 0 min 0,0 UV-I 0 W/m² 19,2 °C 99 %
17.07.2019 21:50 19,9 °C 78 % 1010,9 hPa 0,0 l/m² 0,0 km/h 0 min 0,0 UV-I 0 W/m² 19,9 °C 100 %
17.07.2019 21:40 20,5 °C 76 % 1010,8 hPa 0,0 l/m² 0,0 km/h 0 min 0,0 UV-I 0 W/m² 20,5 °C 99 %
17.07.2019 21:30 21,2 °C 74 % 1010,8 hPa 0,0 l/m² 0,0 km/h 0 min 0,0 UV-I 0 W/m² 21,2 °C 100 %
17.07.2019 21:20 21,7 °C 72 % 1010,7 hPa 0,0 l/m² 0,0 km/h 0 min 0,0 UV-I 0 W/m² 21,7 °C 99 %
17.07.2019 21:10 22,5 °C 68 % 1010,6 hPa 0,0 l/m² 0,0 km/h 0 min 0,0 UV-I 2 W/m² 22,5 °C 99 %
17.07.2019 21:00 22,9 °C 66 % 1010,5 hPa 0,0 l/m² 0,0 km/h 0 min 0,0 UV-I 9 W/m² 22,9 °C 100 %
17.07.2019 20:50 23,4 °C 64 % 1010,4 hPa 0,0 l/m² 0,0 km/h 0 min 0,0 UV-I 14 W/m² 23,4 °C 99 %
17.07.2019 20:40 23,9 °C 67 % 1010,3 hPa 0,0 l/m² 0,0 km/h 0 min 0,0 UV-I 18 W/m² 23,9 °C 100 %
17.07.2019 20:30 24,5 °C 64 % 1010,3 hPa 0,0 l/m² 0,0 km/h 0 min 0,0 UV-I 21 W/m² 24,5 °C 100 %
17.07.2019 20:20 24,8 °C 63 % 1010,3 hPa 0,0 l/m² 0,0 km/h 0 min 0,0 UV-I 28 W/m² 24,8 °C 100 %
17.07.2019 20:10 25,2 °C 59 % 1010,3 hPa 0,0 l/m² 0,0 km/h 0 min 0,0 UV-I 30 W/m² 25,2 °C 100 %
17.07.2019 20:00 25,3 °C 57 % 1010,2 hPa 0,0 l/m² 0,0 km/h 0 min 0,0 UV-I 62 W/m² 25,3 °C 100 %
17.07.2019 19:50 25,4 °C 56 % 1010,2 hPa 0,0 l/m² 0,0 km/h 0 min 0,0 UV-I 80 W/m² 25,4 °C 100 %
17.07.2019 19:40 25,7 °C 53 % 1010,3 hPa 0,0 l/m² 0,0 km/h 0 min 0,0 UV-I 52 W/m² 25,7 °C 99 %
17.07.2019 19:30 26,1 °C 50 % 1010,3 hPa 0,0 l/m² 0,0 km/h 0 min 0,0 UV-I 53 W/m² 26,1 °C 100 %
17.07.2019 19:20 26,4 °C 50 % 1010,3 hPa 0,0 l/m² 0,1 km/h 0 min 0,4 UV-I 59 W/m² 26,4 °C 100 %
17.07.2019 19:10 27,2 °C 45 % 1010,3 hPa 0,0 l/m² 0,1 km/h 0 min 0,5 UV-I 91 W/m² 27,2 °C 100 %
17.07.2019 19:00 27,6 °C 44 % 1010,4 hPa 0,0 l/m² 0,5 km/h 10 min 0,7 UV-I 239 W/m² 27,6 °C 100 %
17.07.2019 18:50 27,8 °C 44 % 1010,3 hPa 0,0 l/m² 0,0 km/h 10 min 0,8 UV-I 283 W/m² 27,8 °C 100 %
17.07.2019 18:40 27,7 °C 45 % 1010,4 hPa 0,0 l/m² 0,0 km/h 10 min 0,9 UV-I 308 W/m² 27,7 °C 100 %
17.07.2019 18:30 27,6 °C 44 % 1010,4 hPa 0,0 l/m² 2,0 km/h 10 min 1,1 UV-I 332 W/m² 27,6 °C 100 %
17.07.2019 18:20 27,8 °C 45 % 1010,5 hPa 0,0 l/m² 0,1 km/h 10 min 1,2 UV-I 347 W/m² 27,8 °C 100 %
17.07.2019 18:10 27,6 °C 49 % 1010,6 hPa 0,0 l/m² 0,0 km/h 10 min 1,4 UV-I 392 W/m² 27,6 °C 100 %
17.07.2019 18:00 27,3 °C 45 % 1010,6 hPa 0,0 l/m² 1,3 km/h 10 min 1,5 UV-I 417 W/m² 27,3 °C 100 %
17.07.2019 17:50 27,2 °C 47 % 1010,8 hPa 0,0 l/m² 1,2 km/h 10 min 1,7 UV-I 384 W/m² 27,2 °C 100 %
17.07.2019 17:40 27,0 °C 46 % 1010,9 hPa 0,0 l/m² 3,4 km/h 10 min 1,9 UV-I 446 W/m² 27,0 °C 100 %
17.07.2019 17:30 26,8 °C 47 % 1011,0 hPa 0,0 l/m² 0,3 km/h 10 min 1,8 UV-I 372 W/m² 26,8 °C 100 %
17.07.2019 17:20 26,4 °C 46 % 1011,1 hPa 0,0 l/m² 1,5 km/h 10 min 1,4 UV-I 222 W/m² 26,4 °C 100 %
17.07.2019 17:10 26,8 °C 47 % 1011,2 hPa 0,0 l/m² 1,1 km/h 10 min 1,2 UV-I 161 W/m² 26,8 °C 100 %
17.07.2019 17:00 27,3 °C 44 % 1011,2 hPa 0,0 l/m² 0,8 km/h 10 min 2,0 UV-I 283 W/m² 27,3 °C 100 %
17.07.2019 16:50 27,6 °C 45 % 1011,2 hPa 0,0 l/m² 0,9 km/h 10 min 2,7 UV-I 509 W/m² 27,6 °C 100 %
17.07.2019 16:40 28,0 °C 44 % 1011,3 hPa 0,0 l/m² 0,6 km/h 10 min 3,5 UV-I 636 W/m² 28,0 °C 100 %
17.07.2019 16:30 28,2 °C 44 % 1011,3 hPa 0,0 l/m² 0,1 km/h 10 min 3,5 UV-I 614 W/m² 28,2 °C 100 %
17.07.2019 16:20 28,2 °C 43 % 1011,5 hPa 0,0 l/m² 1,0 km/h 10 min 3,0 UV-I 387 W/m² 28,2 °C 100 %
17.07.2019 16:10 28,3 °C 43 % 1011,5 hPa 0,0 l/m² 1,0 km/h 10 min 4,2 UV-I 727 W/m² 28,3 °C 100 %
17.07.2019 16:00 27,8 °C 44 % 1011,6 hPa 0,0 l/m² 0,0 km/h 10 min 4,0 UV-I 593 W/m² 27,8 °C 100 %
17.07.2019 15:50 27,7 °C 43 % 1011,7 hPa 0,0 l/m² 0,1 km/h 10 min 3,5 UV-I 460 W/m² 27,7 °C 100 %
17.07.2019 15:40 28,0 °C 44 % 1011,7 hPa 0,0 l/m² 0,6 km/h 10 min 3,9 UV-I 525 W/m² 28,0 °C 91 %
17.07.2019 15:30 27,5 °C 45 % 1011,8 hPa 0,0 l/m² 0,1 km/h 10 min 4,4 UV-I 636 W/m² 27,5 °C 100 %
17.07.2019 15:20 27,3 °C 45 % 1011,9 hPa 0,0 l/m² 2,5 km/h 10 min 5,6 UV-I 816 W/m² 27,3 °C 100 %
17.07.2019 15:10 27,7 °C 46 % 1011,9 hPa 0,0 l/m² 0,2 km/h 10 min 5,8 UV-I 786 W/m² 27,7 °C 100 %
17.07.2019 15:00 27,2 °C 47 % 1012,0 hPa 0,0 l/m² 0,3 km/h 10 min 6,0 UV-I 809 W/m² 27,2 °C 100 %
17.07.2019 14:50 26,8 °C 46 % 1012,1 hPa 0,0 l/m² 1,8 km/h 10 min 6,1 UV-I 787 W/m² 26,8 °C 100 %
17.07.2019 14:40 26,3 °C 49 % 1012,1 hPa 0,0 l/m² 6,0 km/h 10 min 6,4 UV-I 746 W/m² 26,3 °C 100 %
17.07.2019 14:30 26,9 °C 45 % 1012,2 hPa 0,0 l/m² 1,1 km/h 10 min 5,4 UV-I 800 W/m² 26,9 °C 100 %
17.07.2019 14:20 27,5 °C 46 % 1012,2 hPa 0,0 l/m² 1,7 km/h 10 min 6,7 UV-I 796 W/m² 27,5 °C 100 %
17.07.2019 14:10 27,7 °C 45 % 1012,4 hPa 0,0 l/m² 2,0 km/h 10 min 6,9 UV-I 825 W/m² 27,7 °C 100 %
17.07.2019 14:00 27,8 °C 45 % 1012,3 hPa 0,0 l/m² 1,6 km/h 10 min 7,0 UV-I 817 W/m² 27,8 °C 100 %
17.07.2019 13:50 27,3 °C 47 % 1012,4 hPa 0,0 l/m² 0,9 km/h 10 min 7,3 UV-I 821 W/m² 27,3 °C 100 %
17.07.2019 13:40 26,1 °C 50 % 1012,5 hPa 0,0 l/m² 2,1 km/h 10 min 7,4 UV-I 828 W/m² 26,1 °C 100 %
17.07.2019 13:30 26,0 °C 49 % 1012,6 hPa 0,0 l/m² 1,5 km/h 10 min 7,1 UV-I 782 W/m² 26,0 °C 100 %
17.07.2019 13:20 26,8 °C 47 % 1012,6 hPa 0,0 l/m² 1,8 km/h 10 min 7,4 UV-I 825 W/m² 26,8 °C 100 %
17.07.2019 13:10 26,2 °C 48 % 1012,8 hPa 0,0 l/m² 2,3 km/h 10 min 6,8 UV-I 741 W/m² 26,2 °C 100 %
17.07.2019 13:00 25,7 °C 48 % 1012,8 hPa 0,0 l/m² 0,8 km/h 10 min 7,1 UV-I 762 W/m² 25,7 °C 100 %
17.07.2019 12:50 25,9 °C 49 % 1012,8 hPa 0,0 l/m² 1,9 km/h 10 min 7,2 UV-I 817 W/m² 25,9 °C 100 %
17.07.2019 12:40 26,5 °C 47 % 1013,0 hPa 0,0 l/m² 1,3 km/h 10 min 7,2 UV-I 829 W/m² 26,5 °C 100 %
17.07.2019 12:30 25,4 °C 52 % 1013,0 hPa 0,0 l/m² 0,6 km/h 10 min 6,9 UV-I 794 W/m² 25,4 °C 100 %
17.07.2019 12:20 25,0 °C 48 % 1013,1 hPa 0,0 l/m² 3,8 km/h 10 min 6,3 UV-I 783 W/m² 25,0 °C 100 %
17.07.2019 12:10 25,0 °C 48 % 1013,2 hPa 0,0 l/m² 1,6 km/h 10 min 6,7 UV-I 745 W/m² 25,0 °C 100 %
17.07.2019 12:00 25,5 °C 48 % 1013,2 hPa 0,0 l/m² 0,0 km/h 10 min 6,8 UV-I 775 W/m² 25,5 °C 100 %
17.07.2019 11:50 25,1 °C 49 % 1013,2 hPa 0,0 l/m² 0,0 km/h 10 min 6,7 UV-I 780 W/m² 25,1 °C 100 %
17.07.2019 11:40 24,0 °C 52 % 1013,3 hPa 0,0 l/m² 1,4 km/h 10 min 6,5 UV-I 772 W/m² 24,0 °C 100 %
17.07.2019 11:30 23,9 °C 51 % 1013,4 hPa 0,0 l/m² 1,2 km/h 10 min 6,2 UV-I 739 W/m² 23,9 °C 100 %
17.07.2019 11:20 23,8 °C 53 % 1013,5 hPa 0,0 l/m² 0,2 km/h 10 min 5,9 UV-I 741 W/m² 23,8 °C 100 %
17.07.2019 11:10 24,2 °C 52 % 1013,5 hPa 0,0 l/m² 0,9 km/h 10 min 5,7 UV-I 718 W/m² 24,2 °C 100 %
17.07.2019 11:00 23,4 °C 56 % 1013,6 hPa 0,0 l/m² 0,8 km/h 10 min 5,5 UV-I 691 W/m² 23,4 °C 100 %
17.07.2019 10:50 23,4 °C 54 % 1013,7 hPa 0,0 l/m² 1,3 km/h 10 min 5,0 UV-I 640 W/m² 23,4 °C 100 %
17.07.2019 10:40 23,4 °C 57 % 1013,7 hPa 0,0 l/m² 0,0 km/h 10 min 4,9 UV-I 657 W/m² 23,4 °C 100 %
17.07.2019 10:30 22,7 °C 59 % 1013,8 hPa 0,0 l/m² 0,3 km/h 10 min 4,6 UV-I 634 W/m² 22,7 °C 100 %
17.07.2019 10:20 22,6 °C 59 % 1013,9 hPa 0,0 l/m² 0,1 km/h 10 min 4,4 UV-I 624 W/m² 22,6 °C 100 %
17.07.2019 10:10 21,9 °C 60 % 1013,9 hPa 0,0 l/m² 0,1 km/h 10 min 4,0 UV-I 581 W/m² 21,9 °C 91 %
17.07.2019 10:00 21,6 °C 63 % 1014,0 hPa 0,0 l/m² 0,0 km/h 10 min 3,7 UV-I 562 W/m² 21,6 °C 100 %
17.07.2019 09:50 20,8 °C 65 % 1014,1 hPa 0,0 l/m² 0,5 km/h 10 min 3,5 UV-I 558 W/m² 20,8 °C 100 %
17.07.2019 09:40 20,4 °C 68 % 1014,1 hPa 0,0 l/m² 0,6 km/h 10 min 3,2 UV-I 526 W/m² 20,4 °C 100 %
17.07.2019 09:30 20,1 °C 68 % 1014,1 hPa 0,0 l/m² 0,4 km/h 10 min 3,0 UV-I 505 W/m² 20,1 °C 100 %
17.07.2019 09:20 19,7 °C 73 % 1014,2 hPa 0,0 l/m² 0,0 km/h 10 min 2,7 UV-I 478 W/m² 19,7 °C 100 %
17.07.2019 09:10 19,3 °C 73 % 1014,2 hPa 0,0 l/m² 0,4 km/h 10 min 2,5 UV-I 462 W/m² 19,3 °C 100 %
17.07.2019 09:00 18,7 °C 76 % 1014,4 hPa 0,0 l/m² 0,1 km/h 10 min 2,3 UV-I 445 W/m² 18,7 °C 100 %
17.07.2019 08:50 17,9 °C 78 % 1014,5 hPa 0,0 l/m² 0,0 km/h 10 min 1,9 UV-I 355 W/m² 17,9 °C 100 %
17.07.2019 08:40 17,7 °C 77 % 1014,4 hPa 0,0 l/m² 0,0 km/h 10 min 1,8 UV-I 380 W/m² 17,7 °C 100 %
17.07.2019 08:30 17,3 °C 79 % 1014,5 hPa 0,0 l/m² 0,0 km/h 10 min 1,6 UV-I 334 W/m² 17,3 °C 100 %
17.07.2019 08:20 16,8 °C 81 % 1014,5 hPa 0,0 l/m² 0,0 km/h 10 min 1,4 UV-I 311 W/m² 16,8 °C 100 %
17.07.2019 08:10 16,2 °C 84 % 1014,5 hPa 0,0 l/m² 0,0 km/h 10 min 1,2 UV-I 257 W/m² 16,2 °C 100 %
17.07.2019 08:00 15,5 °C 89 % 1014,5 hPa 0,0 l/m² 0,0 km/h 10 min 1,1 UV-I 248 W/m² 15,5 °C 100 %
17.07.2019 07:50 14,7 °C 93 % 1014,6 hPa 0,0 l/m² 0,0 km/h 10 min 1,0 UV-I 236 W/m² 14,7 °C 100 %
17.07.2019 07:40 13,9 °C 95 % 1014,6 hPa 0,0 l/m² 0,0 km/h 10 min 0,8 UV-I 207 W/m² 13,9 °C 99 %
17.07.2019 07:30 13,5 °C 96 % 1014,6 hPa 0,0 l/m² 0,0 km/h 10 min 0,7 UV-I 181 W/m² 13,5 °C 100 %
17.07.2019 07:20 13,1 °C 96 % 1014,7 hPa 0,0 l/m² 0,0 km/h 10 min 0,6 UV-I 173 W/m² 13,1 °C 100 %
17.07.2019 07:10 12,7 °C 96 % 1014,7 hPa 0,0 l/m² 0,0 km/h 10 min 0,6 UV-I 154 W/m² 12,7 °C 100 %
17.07.2019 07:00 12,1 °C 96 % 1014,7 hPa 0,0 l/m² 0,0 km/h 10 min 0,5 UV-I 120 W/m² 12,1 °C 100 %
17.07.2019 06:50 11,6 °C 96 % 1014,8 hPa 0,0 l/m² 0,0 km/h 0 min 0,0 UV-I 99 W/m² 11,6 °C 100 %
17.07.2019 06:40 10,8 °C 95 % 1014,7 hPa 0,0 l/m² 0,0 km/h 0 min 0,0 UV-I 82 W/m² 10,8 °C 99 %
17.07.2019 06:30 10,5 °C 94 % 1014,8 hPa 0,0 l/m² 0,0 km/h 0 min 0,0 UV-I 40 W/m² 10,5 °C 99 %
17.07.2019 06:20 10,4 °C 94 % 1014,7 hPa 0,0 l/m² 0,0 km/h 0 min 0,0 UV-I 28 W/m² 10,4 °C 91 %
17.07.2019 06:10 10,3 °C 94 % 1014,7 hPa 0,0 l/m² 0,0 km/h 0 min 0,0 UV-I 23 W/m² 10,3 °C 100 %
17.07.2019 06:00 10,3 °C 94 % 1014,7 hPa 0,0 l/m² 0,0 km/h 0 min 0,0 UV-I 18 W/m² 10,3 °C 100 %
17.07.2019 05:50 10,3 °C 94 % 1014,6 hPa 0,0 l/m² 0,0 km/h 0 min 0,0 UV-I 13 W/m² 10,3 °C 100 %
17.07.2019 05:40 10,4 °C 94 % 1014,6 hPa 0,0 l/m² 0,0 km/h 0 min 0,0 UV-I 10 W/m² 10,4 °C 100 %
17.07.2019 05:30 10,5 °C 94 % 1014,6 hPa 0,0 l/m² 0,0 km/h 0 min 0,0 UV-I 3 W/m² 10,5 °C 100 %
17.07.2019 05:20 10,6 °C 94 % 1014,6 hPa 0,0 l/m² 0,0 km/h 0 min 0,0 UV-I 0 W/m² 10,6 °C 100 %
17.07.2019 05:10 10,6 °C 94 % 1014,7 hPa 0,0 l/m² 0,0 km/h 0 min 0,0 UV-I 0 W/m² 10,6 °C 100 %
17.07.2019 05:00 10,6 °C 93 % 1014,7 hPa 0,0 l/m² 0,0 km/h 0 min 0,0 UV-I 0 W/m² 10,6 °C 100 %
17.07.2019 04:50 10,7 °C 93 % 1014,7 hPa 0,0 l/m² 0,0 km/h 0 min 0,0 UV-I 0 W/m² 10,7 °C 99 %
17.07.2019 04:40 10,8 °C 93 % 1014,9 hPa 0,0 l/m² 0,0 km/h 0 min 0,0 UV-I 0 W/m² 10,8 °C 100 %
17.07.2019 04:30 10,8 °C 93 % 1014,9 hPa 0,0 l/m² 0,0 km/h 0 min 0,0 UV-I 0 W/m² 10,8 °C 100 %
17.07.2019 04:20 10,9 °C 93 % 1014,9 hPa 0,0 l/m² 0,0 km/h 0 min 0,0 UV-I 0 W/m² 10,9 °C 100 %
17.07.2019 04:10 11,1 °C 93 % 1014,9 hPa 0,0 l/m² 0,0 km/h 0 min 0,0 UV-I 0 W/m² 11,1 °C 100 %
17.07.2019 04:00 11,2 °C 93 % 1014,9 hPa 0,0 l/m² 0,0 km/h 0 min 0,0 UV-I 0 W/m² 11,2 °C 100 %
17.07.2019 03:50 11,3 °C 93 % 1015,0 hPa 0,0 l/m² 0,0 km/h 0 min 0,0 UV-I 0 W/m² 11,3 °C 100 %
17.07.2019 03:40 11,3 °C 93 % 1015,0 hPa 0,0 l/m² 0,0 km/h 0 min 0,0 UV-I 0 W/m² 11,3 °C 100 %
17.07.2019 03:30 11,3 °C 93 % 1015,0 hPa 0,0 l/m² 0,0 km/h 0 min 0,0 UV-I 0 W/m² 11,3 °C 100 %
17.07.2019 03:20 11,4 °C 92 % 1015,1 hPa 0,0 l/m² 0,0 km/h 0 min 0,0 UV-I 0 W/m² 11,4 °C 100 %
17.07.2019 03:10 11,5 °C 92 % 1015,1 hPa 0,0 l/m² 0,0 km/h 0 min 0,0 UV-I 0 W/m² 11,5 °C 99 %
17.07.2019 03:00 11,6 °C 92 % 1015,2 hPa 0,0 l/m² 0,0 km/h 0 min 0,0 UV-I 0 W/m² 11,6 °C 100 %
17.07.2019 02:50 11,7 °C 92 % 1015,2 hPa 0,0 l/m² 0,0 km/h 0 min 0,0 UV-I 0 W/m² 11,7 °C 100 %
17.07.2019 02:40 11,8 °C 92 % 1015,3 hPa 0,0 l/m² 0,0 km/h 0 min 0,0 UV-I 0 W/m² 11,8 °C 100 %
17.07.2019 02:30 11,9 °C 92 % 1015,2 hPa 0,0 l/m² 0,0 km/h 0 min 0,0 UV-I 0 W/m² 11,9 °C 100 %
17.07.2019 02:20 12,1 °C 92 % 1015,3 hPa 0,0 l/m² 0,0 km/h 0 min 0,0 UV-I 0 W/m² 12,1 °C 100 %
17.07.2019 02:10 12,2 °C 92 % 1015,4 hPa 0,0 l/m² 0,0 km/h 0 min 0,0 UV-I 0 W/m² 12,2 °C 100 %
17.07.2019 02:00 12,3 °C 91 % 1015,4 hPa 0,0 l/m² 0,0 km/h 0 min 0,0 UV-I 0 W/m² 12,3 °C 100 %
_ Min-Zeit 06:10 16:20 20:00 - 01:40 - - - 06:10 10:10
Minimum _ 10,3 °C 43 % 1010,2 hPa - 0,0 km/h - - - 10,3 °C 91 %
_ Max-Zeit 16:10 07:30 02:10 01:40 14:40 19:00 13:40 12:40 16:10 01:40
Maximum _ 28,3 °C 96 % 1015,4 hPa 0,0 l/m² 6,0 km/h
N-NW
10 min 7,4 UV-I 829 W/m² 28,3 °C 100 %
Durchschnitt _ 19,5 °C 71 % 1012,9 hPa #0,0 l/m² 0,4 km/h #0 min. 0,0 UV-I 0 W/m² 19,5 °C 100 %